Time;durP1;ratioP1;P1;durP2;ratioP2;P2;SDS_P1;SDS_P2;PMS_P1;PMS_P2;Temp;Humidity;BMP_temperature;BMP_pressure;BME280_temperature;BME280_humidity;BME280_pressure;Samples;Min_cycle;Max_cycle;Signal;HPM_P1;HPM_P2
2022/07/31 20:01:29;;;;;;;16.12;8.15;;;;;;;;;;5306567;26;20807;-81
2022/07/31 20:03:56;;;;;;;13.73;8.88;;;;;;;;;;5292115;27;20188;-83
2022/07/31 20:06:22;;;;;;;12.35;9.00;;;;;;;;;;5293488;27;20322;-80
2022/07/31 20:08:48;;;;;;;7.75;7.00;;;;;;;;;;5295057;27;20192;-82
2022/07/31 20:11:13;;;;;;;14.43;6.15;;;;;;;;;;5294061;27;20190;-81
2022/07/31 20:13:39;;;;;;;7.30;5.97;;;;;;;;;;5294989;27;20188;-81
2022/07/31 20:16:05;;;;;;;6.82;5.55;;;;;;;;;;5295468;27;20192;-81
2022/07/31 20:18:30;;;;;;;5.50;4.93;;;;;;;;;;5295836;27;20180;-81
2022/07/31 20:21:02;;;;;;;6.03;5.45;;;;;;;;;;5297026;27;20190;-83
2022/07/31 20:23:28;;;;;;;5.75;5.15;;;;;;;;;;5297370;27;20700;-82
2022/07/31 20:25:53;;;;;;;7.72;4.68;;;;;;;;;;5297431;27;20177;-82
2022/07/31 20:28:19;;;;;;;8.35;4.97;;;;;;;;;;5296969;27;20245;-83
2022/07/31 20:30:45;;;;;;;6.32;5.70;;;;;;;;;;5297332;27;20204;-82
2022/07/31 20:33:10;;;;;;;6.03;5.43;;;;;;;;;;5277477;27;20213;-83
2022/07/31 20:35:36;;;;;;;12.43;5.53;;;;;;;;;;5296647;27;20181;-82
2022/07/31 20:38:02;;;;;;;6.85;5.68;;;;;;;;;;5296882;27;20204;-82
2022/07/31 20:40:28;;;;;;;8.27;4.95;;;;;;;;;;5296310;27;20200;-83
2022/07/31 20:42:54;;;;;;;8.05;5.37;;;;;;;;;;5277095;27;20695;-83
2022/07/31 20:45:19;;;;;;;11.60;4.55;;;;;;;;;;5297268;27;20509;-84
2022/07/31 20:47:45;;;;;;;5.80;4.80;;;;;;;;;;5296674;27;20628;-83
2022/07/31 20:50:10;;;;;;;6.97;5.30;;;;;;;;;;5296601;27;20194;-82
2022/07/31 20:52:36;;;;;;;7.90;4.60;;;;;;;;;;5296536;27;20231;-82
2022/07/31 20:55:02;;;;;;;8.20;5.60;;;;;;;;;;5296503;27;20180;-82
2022/07/31 20:57:28;;;;;;;8.02;5.30;;;;;;;;;;5296544;27;20204;-83
2022/07/31 20:59:54;;;;;;;7.10;5.22;;;;;;;;;;5296425;27;20192;-84
2022/07/31 21:02:19;;;;;;;6.70;5.00;;;;;;;;;;5297532;27;20230;-83
2022/07/31 21:04:44;;;;;;;11.20;4.75;;;;;;;;;;5297888;27;20181;-89
2022/07/31 21:07:10;;;;;;;9.25;5.45;;;;;;;;;;5298220;27;20266;-87
2022/07/31 21:09:37;;;;;;;5.10;4.57;;;;;;;;;;5297406;27;20199;-87
2022/07/31 21:12:03;;;;;;;5.20;4.68;;;;;;;;;;5296941;27;20624;-85
2022/07/31 21:14:28;;;;;;;6.28;4.60;;;;;;;;;;5297546;27;20227;-87
2022/07/31 21:16:53;;;;;;;5.28;4.75;;;;;;;;;;5297342;27;20200;-86
2022/07/31 21:19:19;;;;;;;13.10;4.32;;;;;;;;;;5297093;27;20188;-90
2022/07/31 21:21:44;;;;;;;8.35;4.15;;;;;;;;;;5297149;27;20223;-87
2022/07/31 21:24:10;;;;;;;3.92;3.62;;;;;;;;;;5297217;27;20222;-83
2022/07/31 21:26:37;;;;;;;4.75;4.35;;;;;;;;;;5296273;27;20204;-81
2022/07/31 21:29:03;;;;;;;6.50;4.15;;;;;;;;;;5276692;27;20207;-85
2022/07/31 21:31:28;;;;;;;7.18;3.58;;;;;;;;;;5297211;27;20296;-82
2022/07/31 21:33:54;;;;;;;5.65;4.30;;;;;;;;;;5295785;27;20251;-82
2022/07/31 21:36:20;;;;;;;4.82;3.55;;;;;;;;;;5296341;27;20198;-82
2022/07/31 21:38:46;;;;;;;5.43;4.28;;;;;;;;;;5296480;27;20654;-82
2022/07/31 21:41:12;;;;;;;5.53;4.22;;;;;;;;;;5296574;27;20274;-84
2022/07/31 21:43:40;;;;;;;3.90;3.28;;;;;;;;;;5296741;27;20591;-82
2022/07/31 21:46:05;;;;;;;4.70;3.50;;;;;;;;;;5296925;27;20192;-86
2022/07/31 21:48:31;;;;;;;3.22;2.85;;;;;;;;;;5296169;27;20175;-85
2022/07/31 21:50:58;;;;;;;6.87;3.78;;;;;;;;;;5297085;27;20282;-85
2022/07/31 21:53:24;;;;;;;3.95;3.30;;;;;;;;;;5297069;27;20203;-84
2022/07/31 21:55:49;;;;;;;4.15;3.75;;;;;;;;;;5296980;27;20246;-86
2022/07/31 21:58:15;;;;;;;5.20;3.70;;;;;;;;;;5297063;27;20361;-86
2022/07/31 22:00:41;;;;;;;7.50;3.30;;;;;;;;;;5298693;27;20225;-92
2022/07/31 22:03:07;;;;;;;3.90;3.40;;;;;;;;;;5299003;27;20300;-93
2022/07/31 22:08:18;;;;;;;6.00;3.75;;;;;;;;;;5311348;27;20407;-89
2022/07/31 22:10:44;;;;;;;8.50;3.67;;;;;;;;;;5306914;27;20211;-89
2022/07/31 22:13:10;;;;;;;5.12;3.37;;;;;;;;;;5305456;27;20216;-87
2022/07/31 22:15:36;;;;;;;9.00;2.50;;;;;;;;;;5306705;27;20187;-87
2022/07/31 22:18:04;;;;;;;5.40;3.20;;;;;;;;;;5306898;27;20223;-92
2022/07/31 22:20:30;;;;;;;9.55;3.08;;;;;;;;;;5308142;27;20180;-90
2022/07/31 22:22:56;;;;;;;5.47;3.05;;;;;;;;;;5303995;27;20211;-91
2022/07/31 22:25:22;;;;;;;7.05;3.60;;;;;;;;;;5298708;27;20904;-90
2022/07/31 22:27:51;;;;;;;11.40;3.60;;;;;;;;;;5298664;27;20356;-91
2022/07/31 22:30:19;;;;;;;4.62;3.22;;;;;;;;;;5298097;27;20189;-89
2022/07/31 22:32:44;;;;;;;3.70;3.22;;;;;;;;;;5298083;27;20623;-91
2022/07/31 22:35:12;;;;;;;3.78;3.03;;;;;;;;;;5298204;27;20176;-89
2022/07/31 22:37:38;;;;;;;4.22;3.00;;;;;;;;;;5298563;27;20436;-91
2022/07/31 22:40:06;;;;;;;5.90;2.97;;;;;;;;;;5312186;27;20176;-84
2022/07/31 22:42:33;;;;;;;7.60;3.40;;;;;;;;;;5312903;27;20318;-87
2022/07/31 22:44:59;;;;;;;7.93;3.05;;;;;;;;;;5292049;27;20454;-88
2022/07/31 22:47:26;;;;;;;5.22;3.80;;;;;;;;;;5300344;27;20203;-89
2022/07/31 22:49:53;;;;;;;4.47;3.97;;;;;;;;;;5300640;27;20213;-89
2022/07/31 22:52:18;;;;;;;9.60;3.78;;;;;;;;;;5298684;27;20215;-89
2022/07/31 22:54:44;;;;;;;9.52;3.10;;;;;;;;;;5297958;27;20191;-89
2022/07/31 22:57:11;;;;;;;3.95;3.08;;;;;;;;;;5297922;27;20215;-92
2022/07/31 22:59:37;;;;;;;9.60;3.62;;;;;;;;;;5277800;27;20207;-92
2022/07/31 23:02:03;;;;;;;3.15;2.85;;;;;;;;;;5297637;27;20258;-91
2022/07/31 23:04:28;;;;;;;4.65;2.70;;;;;;;;;;5297483;27;20200;-89
2022/07/31 23:06:55;;;;;;;4.65;3.35;;;;;;;;;;5278084;27;20250;-90
2022/07/31 23:09:21;;;;;;;3.40;2.87;;;;;;;;;;5297492;27;20269;-90
2022/07/31 23:11:46;;;;;;;3.75;2.90;;;;;;;;;;5297260;27;20593;-93
2022/07/31 23:14:12;;;;;;;4.68;2.40;;;;;;;;;;5297534;27;20247;-89
2022/07/31 23:16:37;;;;;;;2.67;2.47;;;;;;;;;;5296977;27;20204;-87
2022/07/31 23:19:03;;;;;;;4.30;2.95;;;;;;;;;;5277399;27;20180;-88
2022/07/31 23:21:28;;;;;;;4.28;3.67;;;;;;;;;;5297489;27;20216;-88
2022/07/31 23:23:54;;;;;;;4.25;3.80;;;;;;;;;;5297642;27;20214;-89
2022/07/31 23:26:22;;;;;;;5.20;3.78;;;;;;;;;;5297595;27;20249;-89
2022/07/31 23:28:48;;;;;;;5.15;3.87;;;;;;;;;;5297430;27;20180;-93
2022/07/31 23:31:14;;;;;;;3.70;3.37;;;;;;;;;;5297312;27;20192;-92
2022/07/31 23:33:39;;;;;;;4.07;3.05;;;;;;;;;;5297204;27;20241;-90
2022/07/31 23:36:05;;;;;;;8.60;2.92;;;;;;;;;;5296947;27;20190;-89
2022/07/31 23:38:30;;;;;;;10.43;3.70;;;;;;;;;;5297536;27;20303;-92
2022/07/31 23:40:56;;;;;;;6.82;3.20;;;;;;;;;;5297492;27;20248;-91
2022/07/31 23:43:22;;;;;;;3.08;2.65;;;;;;;;;;5297111;27;20205;-90
2022/07/31 23:45:48;;;;;;;5.55;2.40;;;;;;;;;;5297146;27;20177;-94
2022/07/31 23:48:13;;;;;;;13.70;2.75;;;;;;;;;;5297428;27;20215;-89
2022/07/31 23:50:39;;;;;;;7.75;2.67;;;;;;;;;;5297366;27;20192;-89
2022/07/31 23:53:05;;;;;;;9.55;3.03;;;;;;;;;;5297556;27;20234;-89
2022/07/31 23:55:30;;;;;;;3.30;2.58;;;;;;;;;;5278027;27;20207;-91
2022/07/31 23:57:56;;;;;;;4.40;2.80;;;;;;;;;;5298273;27;20271;-91
